sensor_id;sensor_type;location;lat;lon;timestamp;pressure;altitude;pressure_sealevel;temperature;humidity
58967;BME280;44744;51.894;5.080;2023-02-13T00:00:37;103897.30;;;7.15;72.94
58967;BME280;44744;51.894;5.080;2023-02-13T00:01:37;103898.18;;;7.16;73.05
58967;BME280;44744;51.894;5.080;2023-02-13T00:02:38;103897.83;;;7.17;73.14
58967;BME280;44744;51.894;5.080;2023-02-13T00:03:38;103899.23;;;7.18;73.09
58967;BME280;44744;51.894;5.080;2023-02-13T00:04:38;103892.93;;;7.20;73.04
58967;BME280;44744;51.894;5.080;2023-02-13T00:05:38;103891.68;;;7.18;72.93
58967;BME280;44744;51.894;5.080;2023-02-13T00:06:39;103891.14;;;7.17;72.94
58967;BME280;44744;51.894;5.080;2023-02-13T00:07:39;103887.80;;;7.17;72.85
58967;BME280;44744;51.894;5.080;2023-02-13T00:08:39;103887.11;;;7.19;73.09
58967;BME280;44744;51.894;5.080;2023-02-13T00:09:40;103882.54;;;7.19;73.24
58967;BME280;44744;51.894;5.080;2023-02-13T00:10:40;103884.67;;;7.21;73.26
58967;BME280;44744;51.894;5.080;2023-02-13T00:11:40;103880.60;;;7.19;73.50
58967;BME280;44744;51.894;5.080;2023-02-13T00:12:40;103879.54;;;7.19;73.47
58967;BME280;44744;51.894;5.080;2023-02-13T00:13:41;103877.77;;;7.17;73.35
58967;BME280;44744;51.894;5.080;2023-02-13T00:14:41;103881.12;;;7.17;73.43
58967;BME280;44744;51.894;5.080;2023-02-13T00:15:41;103882.00;;;7.17;73.35
58967;BME280;44744;51.894;5.080;2023-02-13T00:16:42;103877.59;;;7.17;73.32
58967;BME280;44744;51.894;5.080;2023-02-13T00:17:42;103878.48;;;7.19;73.27
58967;BME280;44744;51.894;5.080;2023-02-13T00:18:42;103875.67;;;7.20;73.24
58967;BME280;44744;51.894;5.080;2023-02-13T00:19:42;103874.79;;;7.18;73.17
58967;BME280;44744;51.894;5.080;2023-02-13T00:20:43;103869.31;;;7.17;73.01
58967;BME280;44744;51.894;5.080;2023-02-13T00:21:43;103871.42;;;7.15;73.25
58967;BME280;44744;51.894;5.080;2023-02-13T00:22:43;103867.90;;;7.15;73.23
58967;BME280;44744;51.894;5.080;2023-02-13T00:23:43;103866.67;;;7.15;73.36
58967;BME280;44744;51.894;5.080;2023-02-13T00:24:44;103864.73;;;7.15;73.38
58967;BME280;44744;51.894;5.080;2023-02-13T00:25:44;103864.04;;;7.16;73.25
58967;BME280;44744;51.894;5.080;2023-02-13T00:26:44;103863.34;;;7.17;73.22
58967;BME280;44744;51.894;5.080;2023-02-13T00:27:45;103864.93;;;7.18;73.29
58967;BME280;44744;51.894;5.080;2023-02-13T00:28:45;103869.52;;;7.19;73.12
58967;BME280;44744;51.894;5.080;2023-02-13T00:29:45;103871.09;;;7.18;73.36
58967;BME280;44744;51.894;5.080;2023-02-13T00:30:46;103871.09;;;7.18;73.43
58967;BME280;44744;51.894;5.080;2023-02-13T00:31:46;103876.39;;;7.20;73.50
58967;BME280;44744;51.894;5.080;2023-02-13T00:32:46;103876.23;;;7.22;73.53
58967;BME280;44744;51.894;5.080;2023-02-13T00:33:47;103873.59;;;7.23;73.57
58967;BME280;44744;51.894;5.080;2023-02-13T00:34:47;103875.35;;;7.24;73.52
58967;BME280;44744;51.894;5.080;2023-02-13T00:35:47;103875.36;;;7.25;73.61
58967;BME280;44744;51.894;5.080;2023-02-13T00:36:47;103874.84;;;7.25;73.67
58967;BME280;44744;51.894;5.080;2023-02-13T00:37:48;103872.04;;;7.27;73.69
58967;BME280;44744;51.894;5.080;2023-02-13T00:38:48;103872.39;;;7.28;73.47
58967;BME280;44744;51.894;5.080;2023-02-13T00:39:48;103869.41;;;7.28;73.64
58967;BME280;44744;51.894;5.080;2023-02-13T00:40:49;103870.81;;;7.30;73.43
58967;BME280;44744;51.894;5.080;2023-02-13T00:41:49;103869.59;;;7.30;73.54
58967;BME280;44744;51.894;5.080;2023-02-13T00:42:49;103872.77;;;7.31;73.46
58967;BME280;44744;51.894;5.080;2023-02-13T00:43:50;103874.70;;;7.31;73.16
58967;BME280;44744;51.894;5.080;2023-02-13T00:44:50;103867.81;;;7.29;73.23
58967;BME280;44744;51.894;5.080;2023-02-13T00:45:50;103869.57;;;7.28;73.33
58967;BME280;44744;51.894;5.080;2023-02-13T00:46:50;103870.63;;;7.28;73.33
58967;BME280;44744;51.894;5.080;2023-02-13T00:47:51;103871.86;;;7.27;73.30
58967;BME280;44744;51.894;5.080;2023-02-13T00:48:51;103869.57;;;7.28;73.27
58967;BME280;44744;51.894;5.080;2023-02-13T00:49:51;103875.20;;;7.28;73.23
58967;BME280;44744;51.894;5.080;2023-02-13T00:50:52;103873.97;;;7.27;73.27
58967;BME280;44744;51.894;5.080;2023-02-13T00:51:52;103871.84;;;7.25;73.29
58967;BME280;44744;51.894;5.080;2023-02-13T00:52:52;103874.66;;;7.25;73.33
58967;BME280;44744;51.894;5.080;2023-02-13T00:53:54;103872.91;;;7.26;73.43
58967;BME280;44744;51.894;5.080;2023-02-13T00:54:54;103872.73;;;7.26;73.42
58967;BME280;44744;51.894;5.080;2023-02-13T00:55:55;103867.98;;;7.26;73.48
58967;BME280;44744;51.894;5.080;2023-02-13T00:56:55;103872.02;;;7.26;73.61
58967;BME280;44744;51.894;5.080;2023-02-13T00:57:56;103871.13;;;7.24;73.50
58967;BME280;44744;51.894;5.080;2023-02-13T00:58:56;103867.95;;;7.22;73.35
58967;BME280;44744;51.894;5.080;2023-02-13T00:59:57;103871.83;;;7.21;73.52
58967;BME280;44744;51.894;5.080;2023-02-13T01:00:57;103872.52;;;7.21;73.47
58967;BME280;44744;51.894;5.080;2023-02-13T01:01:58;103874.10;;;7.20;73.38
58967;BME280;44744;51.894;5.080;2023-02-13T01:02:58;103872.14;;;7.19;73.53
58967;BME280;44744;51.894;5.080;2023-02-13T01:03:59;103869.69;;;7.18;73.43
58967;BME280;44744;51.894;5.080;2023-02-13T01:05:02;103873.37;;;7.17;73.40
58967;BME280;44744;51.894;5.080;2023-02-13T01:06:02;103871.95;;;7.16;73.46
58967;BME280;44744;51.894;5.080;2023-02-13T01:07:03;103869.66;;;7.15;73.43
58967;BME280;44744;51.894;5.080;2023-02-13T01:08:04;103867.54;;;7.14;73.41
58967;BME280;44744;51.894;5.080;2023-02-13T01:09:04;103864.03;;;7.15;73.45
58967;BME280;44744;51.894;5.080;2023-02-13T01:10:05;103865.96;;;7.16;73.55
58967;BME280;44744;51.894;5.080;2023-02-13T01:11:06;103864.02;;;7.15;73.67
58967;BME280;44744;51.894;5.080;2023-02-13T01:12:06;103864.55;;;7.14;73.61
58967;BME280;44744;51.894;5.080;2023-02-13T01:13:07;103861.20;;;7.16;73.45
58967;BME280;44744;51.894;5.080;2023-02-13T01:14:08;103860.70;;;7.17;73.80
58967;BME280;44744;51.894;5.080;2023-02-13T01:15:08;103861.58;;;7.17;73.91
58967;BME280;44744;51.894;5.080;2023-02-13T01:16:09;103861.75;;;7.17;73.86
58967;BME280;44744;51.894;5.080;2023-02-13T01:17:09;103858.59;;;7.18;73.75
58967;BME280;44744;51.894;5.080;2023-02-13T01:18:12;103859.85;;;7.20;73.84
58967;BME280;44744;51.894;5.080;2023-02-13T01:19:12;103859.30;;;7.18;73.64
58967;BME280;44744;51.894;5.080;2023-02-13T01:20:13;103855.23;;;7.17;73.63
58967;BME280;44744;51.894;5.080;2023-02-13T01:21:17;103859.10;;;7.15;73.60
58967;BME280;44744;51.894;5.080;2023-02-13T01:22:17;103856.45;;;7.13;73.64
58967;BME280;44744;51.894;5.080;2023-02-13T01:23:18;103856.08;;;7.13;73.72
58967;BME280;44744;51.894;5.080;2023-02-13T01:24:18;103856.80;;;7.13;73.68
58967;BME280;44744;51.894;5.080;2023-02-13T01:25:19;103858.02;;;7.13;73.67
58967;BME280;44744;51.894;5.080;2023-02-13T01:26:22;103858.73;;;7.12;73.53
58967;BME280;44744;51.894;5.080;2023-02-13T01:27:23;103855.20;;;7.12;73.40
58967;BME280;44744;51.894;5.080;2023-02-13T01:28:23;103854.11;;;7.08;73.47
58967;BME280;44744;51.894;5.080;2023-02-13T01:29:23;103855.70;;;7.08;73.72
58967;BME280;44744;51.894;5.080;2023-02-13T01:30:23;103856.40;;;7.09;73.91
58967;BME280;44744;51.894;5.080;2023-02-13T01:31:24;103853.96;;;7.10;73.94
58967;BME280;44744;51.894;5.080;2023-02-13T01:32:24;103851.33;;;7.11;74.00
58967;BME280;44744;51.894;5.080;2023-02-13T01:33:26;103850.45;;;7.13;73.97
58967;BME280;44744;51.894;5.080;2023-02-13T01:34:27;103851.19;;;7.14;74.13
58967;BME280;44744;51.894;5.080;2023-02-13T01:35:27;103851.01;;;7.15;74.04
58967;BME280;44744;51.894;5.080;2023-02-13T01:36:28;103851.53;;;7.16;74.10
58967;BME280;44744;51.894;5.080;2023-02-13T01:37:28;103849.60;;;7.16;74.01
58967;BME280;44744;51.894;5.080;2023-02-13T01:38:28;103847.66;;;7.15;73.79
58967;BME280;44744;51.894;5.080;2023-02-13T01:39:30;103849.41;;;7.15;74.00
58967;BME280;44744;51.894;5.080;2023-02-13T01:40:30;103848.35;;;7.14;73.99
58967;BME280;44744;51.894;5.080;2023-02-13T01:41:31;103848.52;;;7.13;73.91
58967;BME280;44744;51.894;5.080;2023-02-13T01:42:32;103849.23;;;7.13;73.92
58967;BME280;44744;51.894;5.080;2023-02-13T01:43:43;103850.84;;;7.15;74.03
58967;BME280;44744;51.894;5.080;2023-02-13T01:45:53;103849.04;;;7.12;74.02
58967;BME280;44744;51.894;5.080;2023-02-13T01:46:55;103848.34;;;7.13;74.05
58967;BME280;44744;51.894;5.080;2023-02-13T01:47:59;103844.64;;;7.14;73.94
58967;BME280;44744;51.894;5.080;2023-02-13T01:49:22;103841.49;;;7.14;73.85
58967;BME280;44744;51.894;5.080;2023-02-13T01:50:34;103839.71;;;7.12;73.89
58967;BME280;44744;51.894;5.080;2023-02-13T01:51:36;103838.66;;;7.13;73.97
58967;BME280;44744;51.894;5.080;2023-02-13T01:52:42;103838.31;;;7.12;73.96
58967;BME280;44744;51.894;5.080;2023-02-13T01:53:53;103837.44;;;7.13;74.00
58967;BME280;44744;51.894;5.080;2023-02-13T01:54:55;103837.98;;;7.14;74.02
58967;BME280;44744;51.894;5.080;2023-02-13T01:56:05;103838.50;;;7.16;74.28
58967;BME280;44744;51.894;5.080;2023-02-13T01:57:15;103836.93;;;7.16;74.14
58967;BME280;44744;51.894;5.080;2023-02-13T01:58:20;103837.63;;;7.15;74.10
58967;BME280;44744;51.894;5.080;2023-02-13T01:59:55;103838.86;;;7.15;74.09
58967;BME280;44744;51.894;5.080;2023-02-13T02:00:57;103836.73;;;7.14;73.91
58967;BME280;44744;51.894;5.080;2023-02-13T02:01:59;103837.77;;;7.13;74.06
58967;BME280;44744;51.894;5.080;2023-02-13T02:03:07;103838.48;;;7.13;74.14
58967;BME280;44744;51.894;5.080;2023-02-13T02:04:15;103840.61;;;7.14;74.15
58967;BME280;44744;51.894;5.080;2023-02-13T02:05:19;103842.20;;;7.15;74.21
58967;BME280;44744;51.894;5.080;2023-02-13T02:06:25;103841.69;;;7.14;74.10
58967;BME280;44744;51.894;5.080;2023-02-13T02:07:28;103843.61;;;7.14;73.97
58967;BME280;44744;51.894;5.080;2023-02-13T02:08:30;103840.95;;;7.14;74.12
58967;BME280;44744;51.894;5.080;2023-02-13T02:09:33;103840.62;;;7.14;74.05
58967;BME280;44744;51.894;5.080;2023-02-13T02:10:36;103843.79;;;7.14;74.05
58967;BME280;44744;51.894;5.080;2023-02-13T02:12:01;103845.91;;;7.16;74.02
58967;BME280;44744;51.894;5.080;2023-02-13T02:13:17;103845.20;;;7.16;74.23
58967;BME280;44744;51.894;5.080;2023-02-13T02:14:18;103845.20;;;7.16;74.23
58967;BME280;44744;51.894;5.080;2023-02-13T02:15:19;103849.61;;;7.18;74.38
58967;BME280;44744;51.894;5.080;2023-02-13T02:16:19;103843.82;;;7.20;74.30
58967;BME280;44744;51.894;5.080;2023-02-13T02:17:21;103844.70;;;7.20;74.30
58967;BME280;44744;51.894;5.080;2023-02-13T02:18:23;103845.59;;;7.21;74.23
58967;BME280;44744;51.894;5.080;2023-02-13T02:19:41;103844.19;;;7.22;74.36
58967;BME280;44744;51.894;5.080;2023-02-13T02:24:46;103846.46;;;7.19;74.18
58967;BME280;44744;51.894;5.080;2023-02-13T02:28:37;103846.95;;;7.14;74.12
58967;BME280;44744;51.894;5.080;2023-02-13T02:32:56;103847.09;;;7.09;74.27
58967;BME280;44744;51.894;5.080;2023-02-13T02:34:16;103842.52;;;7.10;74.24
58967;BME280;44744;51.894;5.080;2023-02-13T02:38:58;103833.20;;;7.11;74.61
58967;BME280;44744;51.894;5.080;2023-02-13T02:40:11;103833.73;;;7.13;74.74
58967;BME280;44744;51.894;5.080;2023-02-13T02:41:23;103829.15;;;7.13;74.72
58967;BME280;44744;51.894;5.080;2023-02-13T02:44:35;103829.16;;;7.13;74.60
58967;BME280;44744;51.894;5.080;2023-02-13T02:45:31;103830.55;;;7.12;74.64
58967;BME280;44744;51.894;5.080;2023-02-13T02:48:15;103824.05;;;7.10;74.67
58967;BME280;44744;51.894;5.080;2023-02-13T02:49:20;103826.48;;;7.08;74.43
58967;BME280;44744;51.894;5.080;2023-02-13T02:51:37;103826.13;;;7.07;74.48
58967;BME280;44744;51.894;5.080;2023-02-13T02:53:03;103830.17;;;7.07;74.46
58967;BME280;44744;51.894;5.080;2023-02-13T02:54:06;103831.75;;;7.05;74.38
58967;BME280;44744;51.894;5.080;2023-02-13T02:56:36;103833.84;;;7.03;74.63
58967;BME280;44744;51.894;5.080;2023-02-13T02:59:05;103825.22;;;7.04;74.89
58967;BME280;44744;51.894;5.080;2023-02-13T03:00:07;103829.09;;;7.03;74.84
58967;BME280;44744;51.894;5.080;2023-02-13T03:01:12;103826.98;;;7.04;74.92
58967;BME280;44744;51.894;5.080;2023-02-13T03:02:15;103832.27;;;7.04;75.04
58967;BME280;44744;51.894;5.080;2023-02-13T03:03:17;103832.11;;;7.06;74.93
58967;BME280;44744;51.894;5.080;2023-02-13T03:04:49;103833.15;;;7.05;74.98
58967;BME280;44744;51.894;5.080;2023-02-13T03:05:50;103830.14;;;7.04;74.91
58967;BME280;44744;51.894;5.080;2023-02-13T03:06:58;103830.15;;;7.04;75.05
58967;BME280;44744;51.894;5.080;2023-02-13T03:08:01;103831.22;;;7.05;74.98
58967;BME280;44744;51.894;5.080;2023-02-13T03:09:05;103829.28;;;7.05;74.87
58967;BME280;44744;51.894;5.080;2023-02-13T03:10:16;103828.74;;;7.04;74.91
58967;BME280;44744;51.894;5.080;2023-02-13T03:11:20;103831.02;;;7.03;74.83
58967;BME280;44744;51.894;5.080;2023-02-13T03:12:23;103826.63;;;7.03;74.87
58967;BME280;44744;51.894;5.080;2023-02-13T03:13:46;103825.41;;;7.05;74.82
58967;BME280;44744;51.894;5.080;2023-02-13T03:14:47;103828.41;;;7.07;74.82
58967;BME280;44744;51.894;5.080;2023-02-13T03:15:51;103829.98;;;7.06;75.00
58967;BME280;44744;51.894;5.080;2023-02-13T03:16:51;103832.12;;;7.07;74.92
58967;BME280;44744;51.894;5.080;2023-02-13T03:17:53;103827.55;;;7.08;74.91
58967;BME280;44744;51.894;5.080;2023-02-13T03:18:55;103828.58;;;7.08;74.97
58967;BME280;44744;51.894;5.080;2023-02-13T03:21:10;103828.95;;;7.08;74.99
58967;BME280;44744;51.894;5.080;2023-02-13T03:22:46;103830.70;;;7.07;74.90
58967;BME280;44744;51.894;5.080;2023-02-13T03:23:59;103831.39;;;7.05;75.12
58967;BME280;44744;51.894;5.080;2023-02-13T03:25:29;103830.15;;;7.03;75.02
58967;BME280;44744;51.894;5.080;2023-02-13T03:26:41;103831.37;;;7.02;74.97
58967;BME280;44744;51.894;5.080;2023-02-13T03:29:17;103827.48;;;6.99;74.88
58967;BME280;44744;51.894;5.080;2023-02-13T03:30:35;103827.63;;;6.96;74.85
58967;BME280;44744;51.894;5.080;2023-02-13T03:31:50;103828.84;;;6.93;74.99
58967;BME280;44744;51.894;5.080;2023-02-13T03:33:22;103826.02;;;6.93;75.05
58967;BME280;44744;51.894;5.080;2023-02-13T03:34:28;103826.38;;;6.93;74.98
58967;BME280;44744;51.894;5.080;2023-02-13T03:35:48;103825.33;;;6.94;75.04
58967;BME280;44744;51.894;5.080;2023-02-13T03:36:59;103823.41;;;6.97;75.36
58967;BME280;44744;51.894;5.080;2023-02-13T03:38:07;103825.17;;;6.97;75.40
58967;BME280;44744;51.894;5.080;2023-02-13T03:40:19;103827.30;;;7.00;75.49
58967;BME280;44744;51.894;5.080;2023-02-13T03:41:24;103828.91;;;7.02;75.37
58967;BME280;44744;51.894;5.080;2023-02-13T03:42:34;103829.42;;;7.01;75.41
58967;BME280;44744;51.894;5.080;2023-02-13T03:45:04;103831.89;;;7.02;75.47
58967;BME280;44744;51.894;5.080;2023-02-13T03:46:07;103829.77;;;7.00;75.31
58967;BME280;44744;51.894;5.080;2023-02-13T03:47:09;103831.34;;;6.98;75.37
58967;BME280;44744;51.894;5.080;2023-02-13T03:48:13;103831.17;;;6.98;75.24
58967;BME280;44744;51.894;5.080;2023-02-13T03:49:38;103826.23;;;6.96;75.32
58967;BME280;44744;51.894;5.080;2023-02-13T03:50:42;103826.57;;;6.95;75.44
58967;BME280;44744;51.894;5.080;2023-02-13T03:51:49;103827.11;;;6.96;75.37
58967;BME280;44744;51.894;5.080;2023-02-13T03:53:05;103826.23;;;6.96;75.33
58967;BME280;44744;51.894;5.080;2023-02-13T03:54:21;103826.57;;;6.95;75.33
58967;BME280;44744;51.894;5.080;2023-02-13T03:55:27;103827.98;;;6.96;75.44
58967;BME280;44744;51.894;5.080;2023-02-13T03:56:30;103824.48;;;6.97;75.48
58967;BME280;44744;51.894;5.080;2023-02-13T03:57:35;103825.36;;;6.99;75.62
58967;BME280;44744;51.894;5.080;2023-02-13T03:58:42;103824.68;;;7.01;75.56
58967;BME280;44744;51.894;5.080;2023-02-13T03:59:44;103825.23;;;7.04;75.66
58967;BME280;44744;51.894;5.080;2023-02-13T04:00:51;103823.48;;;7.07;75.85
58967;BME280;44744;51.894;5.080;2023-02-13T04:03:01;103823.33;;;7.09;75.58
58967;BME280;44744;51.894;5.080;2023-02-13T04:04:50;103823.52;;;7.10;75.58
58967;BME280;44744;51.894;5.080;2023-02-13T04:06:23;103826.31;;;7.09;75.53
58967;BME280;44744;51.894;5.080;2023-02-13T04:07:26;103827.36;;;7.06;75.42
58967;BME280;44744;51.894;5.080;2023-02-13T04:08:27;103827.69;;;7.05;75.41
58967;BME280;44744;51.894;5.080;2023-02-13T04:09:28;103827.52;;;7.04;75.44
58967;BME280;44744;51.894;5.080;2023-02-13T04:10:30;103826.45;;;7.04;75.36
58967;BME280;44744;51.894;5.080;2023-02-13T04:11:52;103822.93;;;7.02;75.38
58967;BME280;44744;51.894;5.080;2023-02-13T04:13:13;103827.48;;;7.00;75.36
58967;BME280;44744;51.894;5.080;2023-02-13T04:14:22;103828.88;;;6.98;75.36
58967;BME280;44744;51.894;5.080;2023-02-13T04:15:31;103825.19;;;6.97;75.37
58967;BME280;44744;51.894;5.080;2023-02-13T04:16:42;103824.13;;;6.98;75.52
58967;BME280;44744;51.894;5.080;2023-02-13T04:17:48;103820.96;;;6.98;75.65
58967;BME280;44744;51.894;5.080;2023-02-13T04:18:51;103822.90;;;6.98;75.61
58967;BME280;44744;51.894;5.080;2023-02-13T04:19:52;103821.84;;;6.98;75.70
58967;BME280;44744;51.894;5.080;2023-02-13T04:20:52;103816.55;;;6.96;75.80
58967;BME280;44744;51.894;5.080;2023-02-13T04:21:57;103814.27;;;6.97;75.91
58967;BME280;44744;51.894;5.080;2023-02-13T04:23:06;103816.55;;;6.97;75.81
58967;BME280;44744;51.894;5.080;2023-02-13T04:24:08;103814.80;;;6.96;75.74
58967;BME280;44744;51.894;5.080;2023-02-13T04:25:10;103811.96;;;6.94;75.68
58967;BME280;44744;51.894;5.080;2023-02-13T04:26:15;103811.77;;;6.94;75.65
58967;BME280;44744;51.894;5.080;2023-02-13T04:27:17;103811.05;;;6.91;75.84
58967;BME280;44744;51.894;5.080;2023-02-13T04:28:17;103813.51;;;6.90;75.89
58967;BME280;44744;51.894;5.080;2023-02-13T04:29:17;103807.69;;;6.90;75.74
58967;BME280;44744;51.894;5.080;2023-02-13T04:30:18;103807.70;;;6.90;75.92
58967;BME280;44744;51.894;5.080;2023-02-13T04:31:18;103809.98;;;6.90;75.77
58967;BME280;44744;51.894;5.080;2023-02-13T04:32:18;103809.11;;;6.90;75.81
58967;BME280;44744;51.894;5.080;2023-02-13T04:33:19;103810.34;;;6.91;75.83
58967;BME280;44744;51.894;5.080;2023-02-13T04:34:19;103808.95;;;6.92;75.80
58967;BME280;44744;51.894;5.080;2023-02-13T04:35:20;103807.20;;;6.94;76.10
58967;BME280;44744;51.894;5.080;2023-02-13T04:36:20;103804.59;;;6.96;75.96
58967;BME280;44744;51.894;5.080;2023-02-13T04:37:20;103805.48;;;6.98;76.16
58967;BME280;44744;51.894;5.080;2023-02-13T04:38:20;103805.67;;;7.01;76.08
58967;BME280;44744;51.894;5.080;2023-02-13T04:39:21;103802.16;;;7.03;76.16
58967;BME280;44744;51.894;5.080;2023-02-13T04:40:21;103805.16;;;7.04;76.20
58967;BME280;44744;51.894;5.080;2023-02-13T04:41:21;103805.36;;;7.06;76.24
58967;BME280;44744;51.894;5.080;2023-02-13T04:42:22;103805.54;;;7.07;76.10
58967;BME280;44744;51.894;5.080;2023-02-13T04:43:22;103802.19;;;7.08;75.99
58967;BME280;44744;51.894;5.080;2023-02-13T04:44:22;103803.08;;;7.08;75.99
58967;BME280;44744;51.894;5.080;2023-02-13T04:45:26;103802.19;;;7.07;75.97
58967;BME280;44744;51.894;5.080;2023-02-13T04:46:26;103801.84;;;7.06;75.95
58967;BME280;44744;51.894;5.080;2023-02-13T04:47:27;103802.89;;;7.06;75.99
58967;BME280;44744;51.894;5.080;2023-02-13T04:48:27;103803.94;;;7.05;75.88
58967;BME280;44744;51.894;5.080;2023-02-13T04:49:27;103805.16;;;7.04;75.81
58967;BME280;44744;51.894;5.080;2023-02-13T04:50:28;103807.09;;;7.02;75.90
58967;BME280;44744;51.894;5.080;2023-02-13T04:51:28;103807.44;;;7.01;75.85
58967;BME280;44744;51.894;5.080;2023-02-13T04:52:28;103805.48;;;7.00;75.78
58967;BME280;44744;51.894;5.080;2023-02-13T04:53:28;103804.27;;;6.99;75.85
58967;BME280;44744;51.894;5.080;2023-02-13T04:54:29;103805.65;;;6.98;76.04
58967;BME280;44744;51.894;5.080;2023-02-13T04:55:29;103808.64;;;6.97;76.11
58967;BME280;44744;51.894;5.080;2023-02-13T04:56:29;103808.46;;;6.97;76.21
58967;BME280;44744;51.894;5.080;2023-02-13T04:57:29;103806.00;;;6.98;76.25
58967;BME280;44744;51.894;5.080;2023-02-13T04:58:30;103803.73;;;6.99;76.12
58967;BME280;44744;51.894;5.080;2023-02-13T04:59:30;103799.67;;;6.98;76.21
58967;BME280;44744;51.894;5.080;2023-02-13T05:00:30;103800.20;;;6.98;76.35
58967;BME280;44744;51.894;5.080;2023-02-13T05:01:31;103797.38;;;6.98;76.35
58967;BME280;44744;51.894;5.080;2023-02-13T05:02:31;103796.85;;;6.99;76.33
58967;BME280;44744;51.894;5.080;2023-02-13T05:03:31;103791.75;;;6.98;76.37
58967;BME280;44744;51.894;5.080;2023-02-13T05:04:32;103791.92;;;6.98;76.35
58967;BME280;44744;51.894;5.080;2023-02-13T05:05:33;103790.16;;;6.97;76.32
58967;BME280;44744;51.894;5.080;2023-02-13T05:06:33;103789.45;;;6.96;76.27
58967;BME280;44744;51.894;5.080;2023-02-13T05:07:33;103785.73;;;6.94;76.36
58967;BME280;44744;51.894;5.080;2023-02-13T05:08:34;103783.99;;;6.94;76.31
58967;BME280;44744;51.894;5.080;2023-02-13T05:09:34;103783.81;;;6.95;76.37
58967;BME280;44744;51.894;5.080;2023-02-13T05:10:34;103783.81;;;6.95;76.32
58967;BME280;44744;51.894;5.080;2023-02-13T05:11:35;103783.47;;;6.96;76.45
58967;BME280;44744;51.894;5.080;2023-02-13T05:12:36;103782.77;;;6.98;76.57
58967;BME280;44744;51.894;5.080;2023-02-13T05:14:52;103782.80;;;7.01;76.58
58967;BME280;44744;51.894;5.080;2023-02-13T05:15:52;103786.86;;;7.02;76.72
58967;BME280;44744;51.894;5.080;2023-02-13T05:16:52;103783.67;;;7.01;76.56
58967;BME280;44744;51.894;5.080;2023-02-13T05:17:53;103780.15;;;7.00;76.53
58967;BME280;44744;51.894;5.080;2023-02-13T05:18:53;103780.50;;;6.99;76.58
58967;BME280;44744;51.894;5.080;2023-02-13T05:19:53;103784.20;;;7.00;76.63
58967;BME280;44744;51.894;5.080;2023-02-13T05:20:54;103780.67;;;7.00;76.74
58967;BME280;44744;51.894;5.080;2023-02-13T05:21:54;103780.33;;;7.00;76.56
58967;BME280;44744;51.894;5.080;2023-02-13T05:22:54;103778.73;;;6.99;76.50
58967;BME280;44744;51.894;5.080;2023-02-13T05:23:55;103781.20;;;6.99;76.52
58967;BME280;44744;51.894;5.080;2023-02-13T05:24:55;103783.65;;;6.97;76.60
58967;BME280;44744;51.894;5.080;2023-02-13T05:25:55;103783.83;;;6.96;76.67
58967;BME280;44744;51.894;5.080;2023-02-13T05:26:55;103782.77;;;6.97;76.61
58967;BME280;44744;51.894;5.080;2023-02-13T05:27:55;103781.55;;;6.98;76.74
58967;BME280;44744;51.894;5.080;2023-02-13T05:28:56;103781.73;;;6.99;76.59
58967;BME280;44744;51.894;5.080;2023-02-13T05:29:56;103781.91;;;7.00;76.61
58967;BME280;44744;51.894;5.080;2023-02-13T05:30:56;103783.67;;;7.00;76.60
58967;BME280;44744;51.894;5.080;2023-02-13T05:31:57;103784.71;;;7.00;76.63
58967;BME280;44744;51.894;5.080;2023-02-13T05:32:57;103785.44;;;7.01;76.65
58967;BME280;44744;51.894;5.080;2023-02-13T05:33:58;103782.96;;;7.00;76.78
58967;BME280;44744;51.894;5.080;2023-02-13T05:34:58;103780.50;;;6.99;76.78
58967;BME280;44744;51.894;5.080;2023-02-13T05:35:58;103782.27;;;6.99;76.76
58967;BME280;44744;51.894;5.080;2023-02-13T05:36:58;103782.08;;;7.00;76.86
58967;BME280;44744;51.894;5.080;2023-02-13T05:37:59;103781.73;;;6.99;76.80
58967;BME280;44744;51.894;5.080;2023-02-13T05:38:59;103781.02;;;6.98;76.81
58967;BME280;44744;51.894;5.080;2023-02-13T05:39:59;103777.49;;;6.97;76.87
58967;BME280;44744;51.894;5.080;2023-02-13T05:41:00;103779.95;;;6.97;76.76
58967;BME280;44744;51.894;5.080;2023-02-13T05:42:01;103776.79;;;6.96;76.94
58967;BME280;44744;51.894;5.080;2023-02-13T05:43:01;103775.36;;;6.94;76.78
58967;BME280;44744;51.894;5.080;2023-02-13T05:44:02;103773.95;;;6.93;76.83
58967;BME280;44744;51.894;5.080;2023-02-13T05:45:02;103774.48;;;6.93;76.84
58967;BME280;44744;51.894;5.080;2023-02-13T05:46:07;103775.19;;;6.94;76.80
58967;BME280;44744;51.894;5.080;2023-02-13T05:47:07;103774.83;;;6.94;76.83
58967;BME280;44744;51.894;5.080;2023-02-13T05:48:07;103776.23;;;6.95;76.83
58967;BME280;44744;51.894;5.080;2023-02-13T05:49:09;103776.77;;;6.95;76.87
58967;BME280;44744;51.894;5.080;2023-02-13T05:50:10;103776.95;;;6.95;76.89
58967;BME280;44744;51.894;5.080;2023-02-13T05:51:11;103778.88;;;6.94;77.09
58967;BME280;44744;51.894;5.080;2023-02-13T05:52:11;103779.25;;;6.96;77.04
58967;BME280;44744;51.894;5.080;2023-02-13T05:53:11;103782.42;;;6.97;77.06
58967;BME280;44744;51.894;5.080;2023-02-13T05:54:12;103785.60;;;7.00;77.02
58967;BME280;44744;51.894;5.080;2023-02-13T05:55:12;103783.69;;;7.02;77.08
58967;BME280;44744;51.894;5.080;2023-02-13T05:56:12;103785.63;;;7.03;77.12
58967;BME280;44744;51.894;5.080;2023-02-13T05:57:13;103788.09;;;7.04;77.07
58967;BME280;44744;51.894;5.080;2023-02-13T05:58:13;103787.59;;;7.06;77.06
58967;BME280;44744;51.894;5.080;2023-02-13T05:59:13;103783.18;;;7.06;77.03
58967;BME280;44744;51.894;5.080;2023-02-13T06:00:16;103787.23;;;7.08;77.07
58967;BME280;44744;51.894;5.080;2023-02-13T06:01:17;103785.84;;;7.08;76.86
58967;BME280;44744;51.894;5.080;2023-02-13T06:02:17;103787.77;;;7.08;76.94
58967;BME280;44744;51.894;5.080;2023-02-13T06:03:18;103785.66;;;7.08;76.89
58967;BME280;44744;51.894;5.080;2023-02-13T06:04:18;103787.23;;;7.08;76.86
58967;BME280;44744;51.894;5.080;2023-02-13T06:05:18;103789.86;;;7.07;76.87
58967;BME280;44744;51.894;5.080;2023-02-13T06:06:18;103789.88;;;7.07;76.78